KLEB/LEB METAR and TAF weather

Enter ICAO airport designator
Station Type Date Time Source
KLEB METAR 2021/04/18 01:53 UTC NOAA

KLEB 180153Z 35004KT 10SM OVC036 07/01 A2979 RMK AO2 SLP091 T00670006


Station Type Date Time Source
KLEB Decoded METAR 2021/04/18 01:53 UTC NOAA

LEBANON MUNICIPAL AIRPORT, NH, United States (KLEB) 43-38N 072-18W 171M
Apr 17, 2021 - 09:53 PM EDT / 2021.04.18 0153 UTC
Wind: from the N (350 degrees) at 5 MPH (4 KT):0
Visibility: 10 mile(s):0
Sky conditions: overcast
Temperature: 44.1 F (6.7 C)
Dew Point: 33.1 F (0.6 C)
Relative Humidity: 65%
Pressure (altimeter): 29.79 in. Hg (1008 hPa)
ob: KLEB 180153Z 35004KT 10SM OVC036 07/01 A2979 RMK AO2 SLP091 T00670006
cycle: 2

Station Type Date Time Source
KLEB TAF 2021/04/17 18:40 UTC NOAA

TAF KLEB 171738Z 1718/1818 35005KT P6SM BKN025 OVC050
FM172100 35003KT P6SM BKN050
FM180700 00000KT P6SM BKN030
FM181200 33003KT P6SM BKN035

Example: see airport list